Time;durP1;ratioP1;P1;durP2;ratioP2;P2;SDS_P1;SDS_P2;PMS_P1;PMS_P2;Temp;Humidity;BMP_temperature;BMP_pressure;BME280_temperature;BME280_humidity;BME280_pressure;Samples;Min_cycle;Max_cycle;Signal;HPM_P1;HPM_P2
2020/12/28 00:00:55;;;;;;;;;;;23.40;36.30;;;;;;1573822;74;1105;-56
2020/12/28 00:02:57;;;;;;;;;;;23.40;36.50;;;;;;1575420;74;712;-56
2020/12/28 00:04:59;;;;;;;;;;;23.40;36.50;;;;;;1575590;74;737;-56
2020/12/28 00:07:01;;;;;;;;;;;23.40;36.60;;;;;;1572738;74;1914;-57
2020/12/28 00:09:04;;;;;;;;;;;23.40;36.50;;;;;;1575609;74;1071;-55
2020/12/28 00:11:06;;;;;;;;;;;23.40;36.50;;;;;;1576945;74;1193;-56
2020/12/28 00:13:08;;;;;;;;;;;23.40;36.60;;;;;;1575006;74;734;-55
2020/12/28 00:15:10;;;;;;;;;;;23.40;36.50;;;;;;1576279;74;697;-55
2020/12/28 00:17:12;;;;;;;;;;;23.40;36.50;;;;;;1575650;74;779;-54
2020/12/28 00:19:14;;;;;;;;;;;23.40;36.80;;;;;;1576845;74;722;-54
2020/12/28 00:21:16;;;;;;;;;;;23.40;36.70;;;;;;1580896;74;1142;-56
2020/12/28 00:23:18;;;;;;;;;;;23.50;36.80;;;;;;1575100;74;709;-57
2020/12/28 00:25:20;;;;;;;;;;;23.50;36.80;;;;;;1578409;74;692;-55
2020/12/28 00:27:22;;;;;;;;;;;23.40;36.90;;;;;;1573503;74;1906;-53
2020/12/28 00:29:24;;;;;;;;;;;23.40;36.90;;;;;;1576798;74;712;-54
2020/12/28 00:31:26;;;;;;;;;;;23.40;36.90;;;;;;1575499;74;1133;-53
2020/12/28 00:33:28;;;;;;;;;;;23.40;36.80;;;;;;1578729;74;694;-56
2020/12/28 00:35:30;;;;;;;;;;;23.40;36.90;;;;;;1579567;74;1089;-55
2020/12/28 00:37:31;;;;;;;;;;;23.40;37.20;;;;;;1581110;74;686;-55
2020/12/28 00:39:33;;;;;;;;;;;23.40;37.00;;;;;;1580760;74;697;-55
2020/12/28 00:41:35;;;;;;;;;;;23.50;37.10;;;;;;1584289;74;1201;-54
2020/12/28 00:43:39;;;;;;;;;;;23.40;37.00;;;;;;1584322;74;795;-56
2020/12/28 00:45:41;;;;;;;;;;;23.40;37.00;;;;;;1582130;74;654;-54
2020/12/28 00:47:42;;;;;;;;;;;23.40;37.20;;;;;;1580770;74;1929;-55
2020/12/28 00:49:44;;;;;;;;;;;23.50;37.30;;;;;;1576644;74;715;-55
2020/12/28 00:51:46;;;;;;;;;;;23.40;37.20;;;;;;1579133;74;1098;-55
2020/12/28 00:53:48;;;;;;;;;;;23.40;37.10;;;;;;1579896;74;741;-58
2020/12/28 00:55:50;;;;;;;;;;;23.40;37.10;;;;;;1575361;74;819;-57
2020/12/28 00:57:52;;;;;;;;;;;23.40;37.20;;;;;;1583403;74;720;-55
2020/12/28 00:59:54;;;;;;;;;;;23.40;37.10;;;;;;1581702;74;716;-57
2020/12/28 01:01:56;;;;;;;;;;;23.40;37.20;;;;;;1576587;74;1100;-55
2020/12/28 01:03:58;;;;;;;;;;;23.40;37.30;;;;;;1570950;74;791;-55
2020/12/28 01:06:00;;;;;;;;;;;23.40;37.20;;;;;;1573532;74;659;-56
2020/12/28 01:08:01;;;;;;;;;;;23.40;37.10;;;;;;1571248;74;1935;-55
2020/12/28 01:10:03;;;;;;;;;;;23.40;37.10;;;;;;1575793;74;675;-57
2020/12/28 01:12:05;;;;;;;;;;;23.40;37.10;;;;;;1576832;74;1201;-54
2020/12/28 01:14:07;;;;;;;;;;;23.40;37.20;;;;;;1576803;74;750;-54
2020/12/28 01:16:12;;;;;;;;;;;23.40;37.20;;;;;;1571358;74;728;-55
2020/12/28 01:18:14;;;;;;;;;;;23.40;37.20;;;;;;1573570;74;740;-55
2020/12/28 01:20:16;;;;;;;;;;;23.40;37.20;;;;;;1575701;74;708;-55
2020/12/28 01:22:18;;;;;;;;;;;23.40;37.30;;;;;;1569277;74;1102;-55
2020/12/28 01:24:21;;;;;;;;;;;23.40;37.40;;;;;;1575798;74;782;-55
2020/12/28 01:26:23;;;;;;;;;;;23.40;37.30;;;;;;1572435;74;793;-56
2020/12/28 01:28:25;;;;;;;;;;;23.40;37.40;;;;;;1578774;74;1922;-55
2020/12/28 01:30:27;;;;;;;;;;;23.40;37.40;;;;;;1577100;74;807;-55
2020/12/28 01:32:29;;;;;;;;;;;23.40;37.50;;;;;;1570196;74;1161;-55
2020/12/28 01:34:31;;;;;;;;;;;23.40;37.50;;;;;;1567875;74;1061;-55
2020/12/28 01:36:33;;;;;;;;;;;23.40;37.40;;;;;;1559118;75;688;-54
2020/12/28 01:38:34;;;;;;;;;;;23.40;37.40;;;;;;1555982;75;680;-56
2020/12/28 01:40:36;;;;;;;;;;;23.50;37.40;;;;;;1554494;75;1174;-54
2020/12/28 01:42:38;;;;;;;;;;;23.50;37.40;;;;;;1558752;74;727;-55
2020/12/28 01:44:40;;;;;;;;;;;23.40;37.20;;;;;;1563740;75;698;-55
2020/12/28 01:46:42;;;;;;;;;;;23.40;37.20;;;;;;1571069;75;665;-54
2020/12/28 01:48:44;;;;;;;;;;;23.50;37.30;;;;;;1571198;75;1955;-55
2020/12/28 01:50:46;;;;;;;;;;;23.50;37.30;;;;;;1566184;75;1160;-55
2020/12/28 01:52:47;;;;;;;;;;;23.50;37.30;;;;;;1564825;75;728;-55
2020/12/28 01:54:49;;;;;;;;;;;23.50;37.50;;;;;;1558165;75;735;-55
2020/12/28 01:56:51;;;;;;;;;;;23.50;37.50;;;;;;1565861;75;724;-55
2020/12/28 01:58:53;;;;;;;;;;;23.50;37.40;;;;;;1564054;75;700;-55
2020/12/28 02:00:55;;;;;;;;;;;23.40;37.40;;;;;;1559009;75;1146;-56
2020/12/28 02:02:57;;;;;;;;;;;23.50;37.50;;;;;;1555850;75;698;-54
2020/12/28 02:04:59;;;;;;;;;;;23.50;37.60;;;;;;1558743;75;705;-55
2020/12/28 02:07:01;;;;;;;;;;;23.50;37.60;;;;;;1557449;75;662;-55
2020/12/28 02:09:03;;;;;;;;;;;23.50;37.60;;;;;;1557622;75;1937;-55
2020/12/28 02:11:06;;;;;;;;;;;23.50;37.60;;;;;;1567310;75;1140;-55
2020/12/28 02:13:08;;;;;;;;;;;23.50;37.60;;;;;;1568714;75;723;-55
2020/12/28 02:15:10;;;;;;;;;;;23.50;37.70;;;;;;1553752;75;800;-56
2020/12/28 02:17:12;;;;;;;;;;;23.50;37.70;;;;;;1556300;75;674;-56
2020/12/28 02:19:14;;;;;;;;;;;23.50;37.70;;;;;;1562378;75;787;-57
2020/12/28 02:21:16;;;;;;;;;;;23.50;37.60;;;;;;1568160;74;1130;-55
2020/12/28 02:23:17;;;;;;;;;;;23.50;37.60;;;;;;1565541;75;668;-57
2020/12/28 02:25:19;;;;;;;;;;;23.50;37.80;;;;;;1557802;74;765;-55
2020/12/28 02:27:21;;;;;;;;;;;23.50;37.80;;;;;;1559403;74;705;-54
2020/12/28 02:29:23;;;;;;;;;;;23.40;37.70;;;;;;1570702;75;1936;-55
2020/12/28 02:31:25;;;;;;;;;;;23.40;37.70;;;;;;1561297;75;1138;-54
2020/12/28 02:33:27;;;;;;;;;;;23.50;37.80;;;;;;1553651;75;727;-55
2020/12/28 02:35:29;;;;;;;;;;;23.50;37.70;;;;;;1560527;75;1071;-55
2020/12/28 02:37:30;;;;;;;;;;;23.50;37.70;;;;;;1564320;75;685;-55
2020/12/28 02:39:32;;;;;;;;;;;23.50;37.60;;;;;;1566838;75;734;-57
2020/12/28 02:41:34;;;;;;;;;;;23.50;37.80;;;;;;1568623;75;1220;-55
2020/12/28 02:43:36;;;;;;;;;;;23.50;37.70;;;;;;1565090;75;714;-55
2020/12/28 02:45:38;;;;;;;;;;;23.50;37.70;;;;;;1567297;75;720;-56
2020/12/28 02:47:40;;;;;;;;;;;23.50;37.70;;;;;;1570318;75;728;-55
2020/12/28 02:49:42;;;;;;;;;;;23.50;37.70;;;;;;1574242;75;666;-56
2020/12/28 02:51:44;;;;;;;;;;;23.50;37.70;;;;;;1568002;75;1149;-56
2020/12/28 02:53:45;;;;;;;;;;;23.50;37.70;;;;;;1557929;75;779;-54
2020/12/28 02:55:47;;;;;;;;;;;23.50;37.80;;;;;;1573711;75;698;-54
2020/12/28 02:57:49;;;;;;;;;;;23.50;37.80;;;;;;1556974;75;946;-56
2020/12/28 02:59:51;;;;;;;;;;;23.50;37.70;;;;;;1562396;75;755;-55
2020/12/28 03:01:53;;;;;;;;;;;23.50;37.80;;;;;;1559377;75;1083;-57
2020/12/28 03:03:55;;;;;;;;;;;23.50;37.90;;;;;;1565312;75;790;-55
2020/12/28 03:05:57;;;;;;;;;;;23.50;37.90;;;;;;1560318;75;777;-56
2020/12/28 03:07:58;;;;;;;;;;;23.50;37.90;;;;;;1562178;75;1941;-56
2020/12/28 03:10:00;;;;;;;;;;;23.50;37.90;;;;;;1553752;75;710;-58
2020/12/28 03:12:02;;;;;;;;;;;23.50;37.90;;;;;;1564056;75;1159;-56
2020/12/28 03:14:04;;;;;;;;;;;23.50;37.90;;;;;;1567019;75;668;-54
2020/12/28 03:16:06;;;;;;;;;;;23.50;37.90;;;;;;1565238;75;674;-55
2020/12/28 03:18:08;;;;;;;;;;;23.50;38.00;;;;;;1566521;75;709;-56
2020/12/28 03:20:10;;;;;;;;;;;23.50;38.00;;;;;;1569499;75;712;-55
2020/12/28 03:22:12;;;;;;;;;;;23.50;38.00;;;;;;1564551;75;1109;-55
2020/12/28 03:24:14;;;;;;;;;;;23.50;38.00;;;;;;1565716;74;712;-57
2020/12/28 03:26:15;;;;;;;;;;;23.50;38.10;;;;;;1567055;75;663;-57
2020/12/28 03:28:17;;;;;;;;;;;23.50;38.10;;;;;;1570796;75;1925;-56
2020/12/28 03:30:19;;;;;;;;;;;23.50;38.10;;;;;;1563324;75;674;-56
2020/12/28 03:32:21;;;;;;;;;;;23.50;38.00;;;;;;1572173;74;1117;-54
2020/12/28 03:34:23;;;;;;;;;;;23.50;38.10;;;;;;1560497;75;702;-55
2020/12/28 03:36:25;;;;;;;;;;;23.50;38.20;;;;;;1561798;75;1592;-57
2020/12/28 03:38:27;;;;;;;;;;;23.50;38.30;;;;;;1553755;75;789;-57
2020/12/28 03:40:29;;;;;;;;;;;23.50;38.20;;;;;;1562762;75;732;-56
2020/12/28 03:42:30;;;;;;;;;;;23.50;38.20;;;;;;1557917;75;800;-55
2020/12/28 03:44:32;;;;;;;;;;;23.50;38.20;;;;;;1559304;75;736;-57
2020/12/28 03:46:34;;;;;;;;;;;23.50;38.30;;;;;;1559958;75;756;-56
2020/12/28 03:48:36;;;;;;;;;;;23.50;38.40;;;;;;1569637;75;1924;-57
2020/12/28 03:50:38;;;;;;;;;;;23.50;38.30;;;;;;1577467;75;1180;-55
2020/12/28 03:52:40;;;;;;;;;;;23.50;38.40;;;;;;1564244;75;676;-57
2020/12/28 03:54:42;;;;;;;;;;;23.50;38.50;;;;;;1568077;75;691;-54
2020/12/28 03:56:43;;;;;;;;;;;23.50;38.50;;;;;;1561834;75;718;-54
2020/12/28 03:58:46;;;;;;;;;;;23.50;38.60;;;;;;1564335;75;663;-55
2020/12/28 04:00:47;;;;;;;;;;;23.50;38.60;;;;;;1554538;75;1152;-56
2020/12/28 04:02:49;;;;;;;;;;;23.40;38.60;;;;;;1554163;75;704;-54
2020/12/28 04:04:51;;;;;;;;;;;23.40;38.60;;;;;;1558665;75;735;-54
2020/12/28 04:06:53;;;;;;;;;;;23.40;38.60;;;;;;1566778;75;708;-55
2020/12/28 04:08:55;;;;;;;;;;;23.50;38.80;;;;;;1562030;75;1928;-55
2020/12/28 04:10:57;;;;;;;;;;;23.40;38.60;;;;;;1558814;75;1117;-55
2020/12/28 04:12:59;;;;;;;;;;;23.50;38.80;;;;;;1561979;75;754;-58
2020/12/28 04:15:01;;;;;;;;;;;23.40;38.70;;;;;;1571710;75;730;-54
2020/12/28 04:17:03;;;;;;;;;;;23.50;38.70;;;;;;1563874;75;677;-57
2020/12/28 04:19:05;;;;;;;;;;;23.40;38.60;;;;;;1548803;75;726;-55
2020/12/28 04:21:07;;;;;;;;;;;23.50;38.80;;;;;;1558030;75;1135;-58
2020/12/28 04:23:09;;;;;;;;;;;23.40;38.70;;;;;;1569846;75;690;-56
2020/12/28 04:25:14;;;;;;;;;;;23.50;38.90;;;;;;1562243;75;870;-56
2020/12/28 04:27:16;;;;;;;;;;;23.40;38.90;;;;;;1565952;75;827;-55
2020/12/28 04:29:18;;;;;;;;;;;23.40;38.90;;;;;;1564469;75;1932;-55
2020/12/28 04:31:20;;;;;;;;;;;23.40;38.90;;;;;;1567893;75;1143;-55
2020/12/28 04:33:22;;;;;;;;;;;23.50;39.10;;;;;;1556857;75;761;-55
2020/12/28 04:35:23;;;;;;;;;;;23.40;39.00;;;;;;1569776;75;692;-56
2020/12/28 04:37:25;;;;;;;;;;;23.40;39.10;;;;;;1557468;75;1113;-56
2020/12/28 04:39:27;;;;;;;;;;;23.40;39.00;;;;;;1563615;75;760;-58
2020/12/28 04:41:29;;;;;;;;;;;23.50;39.20;;;;;;1569600;75;1172;-56
2020/12/28 04:43:31;;;;;;;;;;;23.40;39.10;;;;;;1555499;75;708;-55
2020/12/28 04:45:33;;;;;;;;;;;23.40;39.00;;;;;;1556029;75;749;-55
2020/12/28 04:47:35;;;;;;;;;;;23.40;39.10;;;;;;1561417;75;704;-56
2020/12/28 04:49:36;;;;;;;;;;;23.40;39.30;;;;;;1555990;76;1928;-56
2020/12/28 04:51:38;;;;;;;;;;;23.40;39.40;;;;;;1568687;74;1205;-57
2020/12/28 04:53:41;;;;;;;;;;;23.40;39.40;;;;;;1563478;75;754;-55
2020/12/28 04:55:43;;;;;;;;;;;23.40;39.20;;;;;;1561657;75;734;-56
2020/12/28 04:57:45;;;;;;;;;;;23.40;39.40;;;;;;1562980;75;650;-56
2020/12/28 04:59:47;;;;;;;;;;;23.50;39.40;;;;;;1566971;75;730;-56
2020/12/28 05:01:52;;;;;;;;;;;23.40;39.20;;;;;;1554866;76;1328;-55
2020/12/28 05:03:54;;;;;;;;;;;23.50;39.30;;;;;;1576677;75;685;-57
2020/12/28 05:05:56;;;;;;;;;;;23.50;39.20;;;;;;1568604;75;778;-54
2020/12/28 05:07:58;;;;;;;;;;;23.50;39.20;;;;;;1555492;75;666;-55
2020/12/28 05:10:00;;;;;;;;;;;23.50;39.10;;;;;;1565336;75;1920;-55
2020/12/28 05:12:03;;;;;;;;;;;23.60;39.10;;;;;;1566219;75;1117;-55
2020/12/28 05:14:05;;;;;;;;;;;23.50;39.10;;;;;;1564810;75;644;-54
2020/12/28 05:16:07;;;;;;;;;;;23.50;39.20;;;;;;1562328;75;758;-55
2020/12/28 05:18:08;;;;;;;;;;;23.50;39.30;;;;;;1553733;75;738;-54
2020/12/28 05:20:15;;;;;;;;;;;23.50;39.40;;;;;;1561960;75;747;-55
2020/12/28 05:22:14;;;;;;;;;;;23.50;39.40;;;;;;1571202;74;1562;-55
2020/12/28 05:24:16;;;;;;;;;;;23.40;39.20;;;;;;1560583;75;1389;-55
2020/12/28 05:26:19;;;;;;;;;;;23.40;39.20;;;;;;1569824;75;760;-54
2020/12/28 05:28:22;;;;;;;;;;;23.40;39.30;;;;;;1567998;75;785;-54
2020/12/28 05:30:24;;;;;;;;;;;23.40;39.20;;;;;;1576213;75;1937;-56
2020/12/28 05:32:26;;;;;;;;;;;23.50;39.30;;;;;;1567661;75;1089;-55
2020/12/28 05:34:28;;;;;;;;;;;23.40;39.30;;;;;;1573896;75;792;-56
2020/12/28 05:36:30;;;;;;;;;;;23.50;39.40;;;;;;1569441;75;1075;-56
2020/12/28 05:38:32;;;;;;;;;;;23.50;39.40;;;;;;1583701;74;759;-55
2020/12/28 05:40:34;;;;;;;;;;;23.40;39.20;;;;;;1572507;74;1192;-54
2020/12/28 05:42:37;;;;;;;;;;;23.50;39.30;;;;;;1588781;74;746;-56
2020/12/28 05:44:43;;;;;;;;;;;23.40;39.20;;;;;;1581845;74;662;-55
2020/12/28 05:46:46;;;;;;;;;;;23.40;39.20;;;;;;1575984;74;744;-55
2020/12/28 05:48:48;;;;;;;;;;;23.40;39.30;;;;;;1578938;74;1933;-56
2020/12/28 05:50:55;;;;;;;;;;;23.40;39.30;;;;;;1575606;74;1136;-57
2020/12/28 05:52:58;;;;;;;;;;;23.40;39.30;;;;;;1575661;74;1909;-57
2020/12/28 05:55:00;;;;;;;;;;;23.40;39.30;;;;;;1577006;74;697;-55
2020/12/28 05:57:02;;;;;;;;;;;23.40;39.50;;;;;;1571104;74;730;-54
2020/12/28 05:59:04;;;;;;;;;;;23.40;39.40;;;;;;1572438;74;772;-54
2020/12/28 06:01:06;;;;;;;;;;;23.40;39.40;;;;;;1571669;74;1170;-55
2020/12/28 06:03:09;;;;;;;;;;;23.40;39.30;;;;;;1570472;74;732;-55
2020/12/28 06:05:11;;;;;;;;;;;23.40;39.40;;;;;;1582534;74;686;-55
2020/12/28 06:07:13;;;;;;;;;;;23.40;39.40;;;;;;1568945;74;755;-55
2020/12/28 06:09:16;;;;;;;;;;;23.40;39.40;;;;;;1569865;74;1946;-58
2020/12/28 06:11:19;;;;;;;;;;;23.50;39.50;;;;;;1581549;74;1174;-57
2020/12/28 06:13:24;;;;;;;;;;;23.50;39.50;;;;;;1588600;74;696;-56
2020/12/28 06:15:26;;;;;;;;;;;23.50;39.40;;;;;;1589182;74;698;-56
2020/12/28 06:17:34;;;;;;;;;;;23.50;39.40;;;;;;1594586;74;697;-57
2020/12/28 06:19:36;;;;;;;;;;;23.50;39.50;;;;;;1581053;74;771;-56
2020/12/28 06:21:38;;;;;;;;;;;23.50;39.40;;;;;;1585565;74;1136;-56
2020/12/28 06:23:40;;;;;;;;;;;23.50;39.40;;;;;;1582984;74;739;-55
2020/12/28 06:25:42;;;;;;;;;;;23.50;39.60;;;;;;1561717;75;967;-55
2020/12/28 06:27:46;;;;;;;;;;;23.50;39.50;;;;;;1571284;75;1131;-56
2020/12/28 06:29:47;;;;;;;;;;;23.50;39.50;;;;;;1571328;74;1934;-58
2020/12/28 06:31:49;;;;;;;;;;;23.50;39.50;;;;;;1580330;74;1157;-57
2020/12/28 06:33:51;;;;;;;;;;;23.50;39.40;;;;;;1572400;74;735;-56
2020/12/28 06:35:53;;;;;;;;;;;23.50;39.40;;;;;;1574319;74;751;-57
2020/12/28 06:37:55;;;;;;;;;;;23.60;39.40;;;;;;1586552;74;1092;-58
2020/12/28 06:39:58;;;;;;;;;;;23.50;39.40;;;;;;1582545;74;787;-56
2020/12/28 06:42:07;;;;;;;;;;;23.60;39.30;;;;;;1568089;74;1558;-57
2020/12/28 06:44:08;;;;;;;;;;;23.60;39.20;;;;;;1573896;74;710;-56
2020/12/28 06:46:10;;;;;;;;;;;23.60;39.10;;;;;;1564195;75;926;-56
2020/12/28 06:48:19;;;;;;;;;;;23.60;39.00;;;;;;1572749;74;774;-56
2020/12/28 06:50:22;;;;;;;;;;;23.60;39.00;;;;;;1581260;74;1940;-56
2020/12/28 06:52:24;;;;;;;;;;;23.60;39.10;;;;;;1574246;74;1053;-56
2020/12/28 06:54:26;;;;;;;;;;;23.60;39.00;;;;;;1572483;74;679;-55
2020/12/28 06:56:28;;;;;;;;;;;23.60;39.10;;;;;;1576216;74;720;-55
2020/12/28 06:58:29;;;;;;;;;;;23.60;39.20;;;;;;1586693;74;668;-57
2020/12/28 07:00:31;;;;;;;;;;;23.60;39.20;;;;;;1576322;74;1160;-57
2020/12/28 07:02:33;;;;;;;;;;;23.60;39.20;;;;;;1580082;74;787;-56
2020/12/28 07:04:36;;;;;;;;;;;23.60;39.20;;;;;;1585219;74;787;-55
2020/12/28 07:06:38;;;;;;;;;;;23.60;39.20;;;;;;1587157;74;730;-56
2020/12/28 07:08:40;;;;;;;;;;;23.60;39.30;;;;;;1575571;74;800;-59
2020/12/28 07:10:42;;;;;;;;;;;23.60;39.20;;;;;;1570614;74;1945;-55
2020/12/28 07:12:44;;;;;;;;;;;23.60;39.20;;;;;;1570059;74;695;-56
2020/12/28 07:14:46;;;;;;;;;;;23.60;39.20;;;;;;1585826;74;696;-56
2020/12/28 07:16:55;;;;;;;;;;;23.60;39.20;;;;;;1584355;74;714;-58
2020/12/28 07:19:04;;;;;;;;;;;23.60;39.20;;;;;;1580327;74;718;-57
2020/12/28 07:21:06;;;;;;;;;;;23.60;39.20;;;;;;1572149;74;1541;-56
2020/12/28 07:23:08;;;;;;;;;;;23.70;39.20;;;;;;1572959;74;680;-55
2020/12/28 07:25:13;;;;;;;;;;;23.60;39.20;;;;;;1584311;74;797;-56
2020/12/28 07:27:15;;;;;;;;;;;23.60;39.10;;;;;;1575879;74;765;-55
2020/12/28 07:29:18;;;;;;;;;;;23.70;39.40;;;;;;1578073;74;763;-55
2020/12/28 07:31:21;;;;;;;;;;;23.60;39.20;;;;;;1578841;74;1934;-56
2020/12/28 07:33:24;;;;;;;;;;;23.70;39.40;;;;;;1575156;74;702;-56
2020/12/28 07:35:26;;;;;;;;;;;23.60;39.30;;;;;;1573472;74;996;-55
2020/12/28 07:37:28;;;;;;;;;;;23.70;39.40;;;;;;1575470;74;681;-57
2020/12/28 07:39:30;;;;;;;;;;;23.60;39.40;;;;;;1584306;74;1079;-55
2020/12/28 07:41:32;;;;;;;;;;;23.70;39.50;;;;;;1573307;74;1185;-55
2020/12/28 07:43:34;;;;;;;;;;;23.70;39.50;;;;;;1580102;74;784;-56
2020/12/28 07:45:35;;;;;;;;;;;23.70;39.50;;;;;;1574678;74;750;-57
2020/12/28 07:47:45;;;;;;;;;;;23.60;39.40;;;;;;1585024;74;778;-56
2020/12/28 07:49:47;;;;;;;;;;;23.70;39.40;;;;;;1583716;74;1945;-55
2020/12/28 07:52:08;;;;;;;;;;;23.60;39.30;;;;;;1577750;74;1144;-55
2020/12/28 07:54:18;;;;;;;;;;;23.60;39.40;;;;;;1570885;74;685;-55
2020/12/28 07:56:24;;;;;;;;;;;23.60;39.30;;;;;;1580146;74;688;-57
2020/12/28 07:58:27;;;;;;;;;;;23.60;39.30;;;;;;1569594;74;687;-55
2020/12/28 08:00:31;;;;;;;;;;;23.60;39.40;;;;;;1568455;74;1171;-55
2020/12/28 08:02:51;;;;;;;;;;;23.70;39.40;;;;;;1579900;74;693;-55
2020/12/28 08:04:54;;;;;;;;;;;23.60;39.20;;;;;;1591927;74;694;-54
2020/12/28 08:06:57;;;;;;;;;;;23.70;39.40;;;;;;1581962;74;787;-54
2020/12/28 08:09:03;;;;;;;;;;;23.70;39.40;;;;;;1588156;74;711;-55
2020/12/28 08:11:05;;;;;;;;;;;23.60;39.30;;;;;;1571787;74;1928;-53
2020/12/28 08:13:06;;;;;;;;;;;23.70;39.50;;;;;;1573168;73;713;-54
2020/12/28 08:15:08;;;;;;;;;;;23.70;39.50;;;;;;1568940;74;739;-55
2020/12/28 08:17:10;;;;;;;;;;;23.70;39.40;;;;;;1574755;74;751;-55
2020/12/28 08:19:12;;;;;;;;;;;23.80;39.40;;;;;;1569278;74;666;-56
2020/12/28 08:21:14;;;;;;;;;;;23.70;39.40;;;;;;1570881;74;1103;-56
2020/12/28 08:23:16;;;;;;;;;;;23.70;39.30;;;;;;1578709;74;716;-55
2020/12/28 08:25:18;;;;;;;;;;;23.80;39.30;;;;;;1564893;75;1167;-55
2020/12/28 08:27:20;;;;;;;;;;;23.70;39.20;;;;;;1587382;74;689;-54
2020/12/28 08:29:22;;;;;;;;;;;23.70;39.20;;;;;;1581179;74;697;-54
2020/12/28 08:31:30;;;;;;;;;;;23.80;39.30;;;;;;1577173;74;1922;-53
2020/12/28 08:33:32;;;;;;;;;;;23.80;39.30;;;;;;1578753;74;752;-55
2020/12/28 08:35:33;;;;;;;;;;;23.70;39.40;;;;;;1568731;74;702;-55
2020/12/28 08:37:35;;;;;;;;;;;23.70;39.50;;;;;;1575266;74;711;-56
2020/12/28 08:39:37;;;;;;;;;;;23.60;39.40;;;;;;1561671;74;1106;-55
2020/12/28 08:41:39;;;;;;;;;;;23.60;39.40;;;;;;1558380;75;1201;-55
2020/12/28 08:43:43;;;;;;;;;;;23.60;39.40;;;;;;1547371;76;1141;-55
2020/12/28 08:45:45;;;;;;;;;;;23.60;39.50;;;;;;1554006;75;991;-56
2020/12/28 08:47:48;;;;;;;;;;;23.70;39.70;;;;;;1568778;75;741;-57
2020/12/28 08:49:50;;;;;;;;;;;23.60;39.70;;;;;;1565989;74;2143;-56
2020/12/28 08:51:52;;;;;;;;;;;23.60;39.60;;;;;;1554952;75;1134;-56
2020/12/28 08:53:54;;;;;;;;;;;23.70;39.70;;;;;;1569459;75;776;-56
2020/12/28 08:55:59;;;;;;;;;;;23.60;39.60;;;;;;1559737;75;721;-55
2020/12/28 08:58:01;;;;;;;;;;;23.70;39.80;;;;;;1554077;75;934;-55
2020/12/28 09:00:03;;;;;;;;;;;23.60;39.60;;;;;;1561379;74;740;-56
2020/12/28 09:02:05;;;;;;;;;;;23.50;39.60;;;;;;1556207;75;1178;-57
2020/12/28 09:04:07;;;;;;;;;;;23.70;39.80;;;;;;1560010;75;691;-56
2020/12/28 09:06:09;;;;;;;;;;;23.60;39.70;;;;;;1555865;74;991;-57
2020/12/28 09:08:10;;;;;;;;;;;23.60;39.70;;;;;;1558972;75;708;-55
2020/12/28 09:10:13;;;;;;;;;;;23.60;39.80;;;;;;1560396;75;1931;-55
2020/12/28 09:12:15;;;;;;;;;;;23.60;39.80;;;;;;1557038;75;1134;-55
2020/12/28 09:14:17;;;;;;;;;;;23.70;40.00;;;;;;1553379;75;684;-57
2020/12/28 09:16:18;;;;;;;;;;;23.60;39.90;;;;;;1552945;75;669;-57
2020/12/28 09:18:20;;;;;;;;;;;23.60;39.90;;;;;;1557424;75;714;-57
2020/12/28 09:20:22;;;;;;;;;;;23.60;39.90;;;;;;1555875;74;742;-56
2020/12/28 09:22:24;;;;;;;;;;;23.60;40.00;;;;;;1553021;75;1130;-57
2020/12/28 09:24:26;;;;;;;;;;;23.60;40.00;;;;;;1556227;75;702;-56
2020/12/28 09:26:29;;;;;;;;;;;23.60;40.00;;;;;;1553901;75;774;-56
2020/12/28 09:28:30;;;;;;;;;;;23.60;40.00;;;;;;1557038;75;745;-56
2020/12/28 09:30:32;;;;;;;;;;;23.60;39.90;;;;;;1556496;75;1935;-56
2020/12/28 09:32:34;;;;;;;;;;;23.70;40.00;;;;;;1552846;75;706;-55
2020/12/28 09:34:36;;;;;;;;;;;23.60;39.80;;;;;;1556411;75;681;-55
2020/12/28 09:36:38;;;;;;;;;;;23.70;39.90;;;;;;1555927;73;840;-58
2020/12/28 09:38:40;;;;;;;;;;;23.60;39.80;;;;;;1560538;75;637;-57
2020/12/28 09:40:42;;;;;;;;;;;23.70;39.90;;;;;;1558856;75;1204;-57
2020/12/28 09:42:44;;;;;;;;;;;23.70;39.90;;;;;;1559400;75;729;-57
2020/12/28 09:44:45;;;;;;;;;;;23.60;39.80;;;;;;1559361;74;702;-56
2020/12/28 09:46:49;;;;;;;;;;;23.70;39.80;;;;;;1561808;73;740;-58
2020/12/28 09:48:52;;;;;;;;;;;23.60;39.70;;;;;;1559539;75;732;-55
2020/12/28 09:50:54;;;;;;;;;;;23.60;39.70;;;;;;1558075;75;1933;-58
2020/12/28 09:52:56;;;;;;;;;;;23.60;39.70;;;;;;1561572;74;698;-57
2020/12/28 09:54:58;;;;;;;;;;;23.60;39.50;;;;;;1567232;75;794;-57
2020/12/28 09:57:05;;;;;;;;;;;23.70;39.30;;;;;;1568715;75;690;-57
2020/12/28 09:59:04;;;;;;;;;;;23.70;39.10;;;;;;1553886;75;1545;-56
2020/12/28 10:01:06;;;;;;;;;;;23.80;38.90;;;;;;1557608;75;1146;-59
2020/12/28 10:03:08;;;;;;;;;;;23.70;38.80;;;;;;1562996;75;674;-57
2020/12/28 10:05:10;;;;;;;;;;;23.80;38.60;;;;;;1562990;74;707;-58
2020/12/28 10:07:12;;;;;;;;;;;23.80;38.40;;;;;;1560023;75;697;-57
2020/12/28 10:09:14;;;;;;;;;;;23.80;38.40;;;;;;1553795;74;676;-57
2020/12/28 10:11:17;;;;;;;;;;;23.80;38.30;;;;;;1559072;75;1920;-58
2020/12/28 10:13:19;;;;;;;;;;;23.70;38.20;;;;;;1562695;75;766;-59
2020/12/28 10:15:20;;;;;;;;;;;23.70;38.20;;;;;;1575282;74;678;-56
2020/12/28 10:17:22;;;;;;;;;;;23.70;38.10;;;;;;1566136;75;673;-56
2020/12/28 10:19:24;;;;;;;;;;;23.70;37.90;;;;;;1564388;75;692;-55
2020/12/28 10:21:26;;;;;;;;;;;23.60;37.80;;;;;;1577300;75;1116;-56
2020/12/28 10:23:28;;;;;;;;;;;23.60;38.00;;;;;;1556732;74;775;-56
2020/12/28 10:25:30;;;;;;;;;;;23.60;38.00;;;;;;1557446;75;716;-56
2020/12/28 10:27:32;;;;;;;;;;;23.60;38.00;;;;;;1555367;75;707;-55
2020/12/28 10:29:34;;;;;;;;;;;23.50;38.10;;;;;;1555774;75;712;-55
2020/12/28 10:31:36;;;;;;;;;;;23.50;38.00;;;;;;1560986;75;1933;-56
2020/12/28 10:33:38;;;;;;;;;;;23.50;38.10;;;;;;1570551;75;785;-55
2020/12/28 10:35:40;;;;;;;;;;;23.50;38.00;;;;;;1559239;75;681;-56
2020/12/28 10:37:42;;;;;;;;;;;23.50;38.10;;;;;;1569166;75;752;-55
2020/12/28 10:39:44;;;;;;;;;;;23.50;38.10;;;;;;1567470;75;1108;-56
2020/12/28 10:41:46;;;;;;;;;;;23.60;38.00;;;;;;1562171;75;1221;-55
2020/12/28 10:43:48;;;;;;;;;;;23.60;38.10;;;;;;1564296;75;716;-56
2020/12/28 10:45:49;;;;;;;;;;;23.50;38.00;;;;;;1553458;75;696;-57
2020/12/28 10:47:52;;;;;;;;;;;23.60;38.00;;;;;;1556705;75;706;-55
2020/12/28 10:49:54;;;;;;;;;;;23.60;38.10;;;;;;1562922;75;710;-57
2020/12/28 10:51:55;;;;;;;;;;;23.60;38.00;;;;;;1562627;75;1951;-56
2020/12/28 10:53:57;;;;;;;;;;;23.60;38.00;;;;;;1564691;75;685;-56
2020/12/28 10:55:59;;;;;;;;;;;23.60;38.00;;;;;;1557003;75;658;-56
2020/12/28 10:58:01;;;;;;;;;;;23.60;37.90;;;;;;1563904;75;762;-56
2020/12/28 11:00:04;;;;;;;;;;;23.50;38.00;;;;;;1561794;75;690;-56
2020/12/28 11:02:06;;;;;;;;;;;23.60;38.00;;;;;;1553494;75;1221;-57
2020/12/28 11:04:07;;;;;;;;;;;23.70;38.00;;;;;;1557208;75;783;-57
2020/12/28 11:06:09;;;;;;;;;;;23.70;38.00;;;;;;1567038;75;750;-58
2020/12/28 11:08:12;;;;;;;;;;;23.70;37.80;;;;;;1555301;75;701;-58
2020/12/28 11:10:16;;;;;;;;;;;23.70;37.80;;;;;;1567075;75;660;-58
2020/12/28 11:12:17;;;;;;;;;;;23.70;37.60;;;;;;1557567;75;2048;-59
2020/12/28 11:14:21;;;;;;;;;;;23.60;37.50;;;;;;1559709;75;734;-57
2020/12/28 11:16:26;;;;;;;;;;;23.60;37.60;;;;;;1561713;74;858;-56
2020/12/28 11:18:27;;;;;;;;;;;23.60;37.30;;;;;;1556166;75;690;-57
2020/12/28 11:20:29;;;;;;;;;;;23.60;37.10;;;;;;1560649;75;654;-57
2020/12/28 11:22:31;;;;;;;;;;;23.70;37.20;;;;;;1563803;75;1184;-55
2020/12/28 11:24:33;;;;;;;;;;;23.60;37.10;;;;;;1556925;75;714;-57
2020/12/28 11:26:35;;;;;;;;;;;23.60;37.10;;;;;;1556754;75;787;-56
2020/12/28 11:28:37;;;;;;;;;;;23.70;37.30;;;;;;1557696;75;676;-57
2020/12/28 11:30:39;;;;;;;;;;;23.60;37.00;;;;;;1557800;75;1185;-57
2020/12/28 11:32:42;;;;;;;;;;;23.60;36.90;;;;;;1554544;75;1939;-57
2020/12/28 11:34:43;;;;;;;;;;;23.60;36.90;;;;;;1554744;75;652;-56
2020/12/28 11:36:45;;;;;;;;;;;23.70;37.20;;;;;;1553798;75;654;-56
2020/12/28 11:38:47;;;;;;;;;;;23.70;37.10;;;;;;1557431;75;710;-55
2020/12/28 11:40:49;;;;;;;;;;;23.70;37.00;;;;;;1560853;75;1205;-56
2020/12/28 11:42:51;;;;;;;;;;;23.80;36.90;;;;;;1563948;74;707;-57
2020/12/28 11:44:54;;;;;;;;;;;23.70;36.80;;;;;;1557043;75;783;-58
2020/12/28 11:46:56;;;;;;;;;;;23.70;36.60;;;;;;1555292;75;717;-57
2020/12/28 11:48:58;;;;;;;;;;;23.70;36.80;;;;;;1561414;74;751;-57
2020/12/28 11:51:01;;;;;;;;;;;23.70;36.70;;;;;;1563165;75;1949;-55
2020/12/28 11:53:03;;;;;;;;;;;23.70;35.90;;;;;;1555527;74;687;-56
2020/12/28 11:55:05;;;;;;;;;;;23.70;35.20;;;;;;1558824;75;714;-56
2020/12/28 11:57:07;;;;;;;;;;;23.60;34.20;;;;;;1549665;75;740;-56
2020/12/28 11:59:08;;;;;;;;;;;23.60;33.70;;;;;;1554102;75;726;-57
2020/12/28 12:01:14;;;;;;;;;;;23.60;33.10;;;;;;1555854;75;1133;-56
2020/12/28 12:03:16;;;;;;;;;;;23.60;32.50;;;;;;1555770;75;767;-57
2020/12/28 12:05:18;;;;;;;;;;;23.50;31.90;;;;;;1554738;75;757;-56
2020/12/28 12:07:20;;;;;;;;;;;23.50;31.50;;;;;;1563892;75;694;-56
2020/12/28 12:09:22;;;;;;;;;;;23.40;31.00;;;;;;1560672;75;645;-56